sensor_id;sensor_type;location;lat;lon;timestamp;pressure;altitude;pressure_sealevel;temperature
64960;BMP180;51487;52.266;10.542;2023-11-22T00:00:07;101662.00;;;2.90
64960;BMP180;51487;52.266;10.542;2023-11-22T00:02:34;101669.00;;;3.00
64960;BMP180;51487;52.266;10.542;2023-11-22T00:05:00;101666.00;;;2.90
64960;BMP180;51487;52.266;10.542;2023-11-22T00:07:25;101671.00;;;3.00
64960;BMP180;51487;52.266;10.542;2023-11-22T00:09:54;101673.00;;;3.00
64960;BMP180;51487;52.266;10.542;2023-11-22T00:12:20;101675.00;;;3.00
64960;BMP180;51487;52.266;10.542;2023-11-22T00:14:45;101686.00;;;3.10
64960;BMP180;51487;52.266;10.542;2023-11-22T00:17:12;101682.00;;;3.10
64960;BMP180;51487;52.266;10.542;2023-11-22T00:19:38;101691.00;;;3.00
64960;BMP180;51487;52.266;10.542;2023-11-22T00:22:04;101692.00;;;2.90
64960;BMP180;51487;52.266;10.542;2023-11-22T00:24:36;101701.00;;;2.90
64960;BMP180;51487;52.266;10.542;2023-11-22T00:27:02;101698.00;;;3.10
64960;BMP180;51487;52.266;10.542;2023-11-22T00:29:28;101702.00;;;2.90
64960;BMP180;51487;52.266;10.542;2023-11-22T00:31:54;101714.00;;;2.80
64960;BMP180;51487;52.266;10.542;2023-11-22T00:34:19;101709.00;;;3.00
64960;BMP180;51487;52.266;10.542;2023-11-22T00:36:45;101694.00;;;2.90
64960;BMP180;51487;52.266;10.542;2023-11-22T00:39:10;101705.00;;;2.90
64960;BMP180;51487;52.266;10.542;2023-11-22T00:41:38;101700.00;;;3.00
64960;BMP180;51487;52.266;10.542;2023-11-22T00:44:04;101696.00;;;2.90
64960;BMP180;51487;52.266;10.542;2023-11-22T00:46:31;101709.00;;;2.80
64960;BMP180;51487;52.266;10.542;2023-11-22T00:48:57;101711.00;;;2.80
64960;BMP180;51487;52.266;10.542;2023-11-22T00:51:23;101707.00;;;2.80
64960;BMP180;51487;52.266;10.542;2023-11-22T00:53:49;101705.00;;;2.80
64960;BMP180;51487;52.266;10.542;2023-11-22T00:56:15;101705.00;;;2.60
64960;BMP180;51487;52.266;10.542;2023-11-22T00:58:41;101707.00;;;2.60
64960;BMP180;51487;52.266;10.542;2023-11-22T01:01:07;101719.00;;;2.70
64960;BMP180;51487;52.266;10.542;2023-11-22T01:03:33;101714.00;;;2.90
64960;BMP180;51487;52.266;10.542;2023-11-22T01:05:58;101706.00;;;3.00
64960;BMP180;51487;52.266;10.542;2023-11-22T01:08:24;101698.00;;;3.00
64960;BMP180;51487;52.266;10.542;2023-11-22T01:10:49;101700.00;;;3.00
64960;BMP180;51487;52.266;10.542;2023-11-22T01:13:15;101708.00;;;3.00
64960;BMP180;51487;52.266;10.542;2023-11-22T01:15:41;101711.00;;;3.00
64960;BMP180;51487;52.266;10.542;2023-11-22T01:18:07;101708.00;;;3.00
64960;BMP180;51487;52.266;10.542;2023-11-22T01:20:32;101707.00;;;3.00
64960;BMP180;51487;52.266;10.542;2023-11-22T01:22:58;101712.00;;;3.00
64960;BMP180;51487;52.266;10.542;2023-11-22T01:25:24;101722.00;;;3.00
64960;BMP180;51487;52.266;10.542;2023-11-22T01:27:49;101717.00;;;3.00
64960;BMP180;51487;52.266;10.542;2023-11-22T01:30:15;101721.00;;;2.90
64960;BMP180;51487;52.266;10.542;2023-11-22T01:32:40;101710.00;;;2.80
64960;BMP180;51487;52.266;10.542;2023-11-22T01:35:06;101727.00;;;2.80
64960;BMP180;51487;52.266;10.542;2023-11-22T01:37:32;101731.00;;;2.70
64960;BMP180;51487;52.266;10.542;2023-11-22T01:39:58;101746.00;;;2.50
64960;BMP180;51487;52.266;10.542;2023-11-22T01:42:24;101753.00;;;2.40
64960;BMP180;51487;52.266;10.542;2023-11-22T01:44:51;101748.00;;;2.40
64960;BMP180;51487;52.266;10.542;2023-11-22T01:47:18;101750.00;;;2.20
64960;BMP180;51487;52.266;10.542;2023-11-22T01:49:45;101740.00;;;2.20
64960;BMP180;51487;52.266;10.542;2023-11-22T01:52:11;101751.00;;;2.10
64960;BMP180;51487;52.266;10.542;2023-11-22T01:54:37;101758.00;;;2.10
64960;BMP180;51487;52.266;10.542;2023-11-22T01:57:04;101743.00;;;2.00
64960;BMP180;51487;52.266;10.542;2023-11-22T01:59:33;101753.00;;;2.10
64960;BMP180;51487;52.266;10.542;2023-11-22T02:01:59;101759.00;;;2.00
64960;BMP180;51487;52.266;10.542;2023-11-22T02:04:24;101760.00;;;2.00
64960;BMP180;51487;52.266;10.542;2023-11-22T02:06:50;101761.00;;;2.00
64960;BMP180;51487;52.266;10.542;2023-11-22T02:09:16;101761.00;;;2.00
64960;BMP180;51487;52.266;10.542;2023-11-22T02:11:43;101764.00;;;2.00
64960;BMP180;51487;52.266;10.542;2023-11-22T02:14:11;101758.00;;;1.90
64960;BMP180;51487;52.266;10.542;2023-11-22T02:16:37;101768.00;;;1.80
64960;BMP180;51487;52.266;10.542;2023-11-22T02:19:06;101766.00;;;1.70
64960;BMP180;51487;52.266;10.542;2023-11-22T02:21:32;101771.00;;;1.60
64960;BMP180;51487;52.266;10.542;2023-11-22T02:23:58;101748.00;;;1.70
64960;BMP180;51487;52.266;10.542;2023-11-22T02:26:24;101760.00;;;1.60
64960;BMP180;51487;52.266;10.542;2023-11-22T02:28:50;101768.00;;;1.60
64960;BMP180;51487;52.266;10.542;2023-11-22T02:31:16;101759.00;;;1.50
64960;BMP180;51487;52.266;10.542;2023-11-22T02:33:42;101758.00;;;1.60
64960;BMP180;51487;52.266;10.542;2023-11-22T02:36:08;101754.00;;;1.50
64960;BMP180;51487;52.266;10.542;2023-11-22T02:38:37;101749.00;;;1.40
64960;BMP180;51487;52.266;10.542;2023-11-22T02:41:03;101757.00;;;1.40
64960;BMP180;51487;52.266;10.542;2023-11-22T02:43:30;101763.00;;;1.30
64960;BMP180;51487;52.266;10.542;2023-11-22T02:45:55;101768.00;;;1.40
64960;BMP180;51487;52.266;10.542;2023-11-22T02:48:21;101757.00;;;1.30
64960;BMP180;51487;52.266;10.542;2023-11-22T02:50:47;101760.00;;;1.20
64960;BMP180;51487;52.266;10.542;2023-11-22T02:53:14;101757.00;;;1.30
64960;BMP180;51487;52.266;10.542;2023-11-22T02:55:39;101767.00;;;1.20
64960;BMP180;51487;52.266;10.542;2023-11-22T02:58:06;101770.00;;;1.20
64960;BMP180;51487;52.266;10.542;2023-11-22T03:00:31;101779.00;;;1.20
64960;BMP180;51487;52.266;10.542;2023-11-22T03:02:59;101781.00;;;1.20
64960;BMP180;51487;52.266;10.542;2023-11-22T03:05:26;101785.00;;;1.20
64960;BMP180;51487;52.266;10.542;2023-11-22T03:07:51;101791.00;;;1.10
64960;BMP180;51487;52.266;10.542;2023-11-22T03:10:17;101790.00;;;1.10
64960;BMP180;51487;52.266;10.542;2023-11-22T03:12:46;101792.00;;;1.10
64960;BMP180;51487;52.266;10.542;2023-11-22T03:15:11;101793.00;;;1.00
64960;BMP180;51487;52.266;10.542;2023-11-22T03:17:37;101804.00;;;1.00
64960;BMP180;51487;52.266;10.542;2023-11-22T03:20:06;101804.00;;;0.90
64960;BMP180;51487;52.266;10.542;2023-11-22T03:22:36;101806.00;;;1.00
64960;BMP180;51487;52.266;10.542;2023-11-22T03:25:03;101809.00;;;1.00
64960;BMP180;51487;52.266;10.542;2023-11-22T03:27:29;101818.00;;;0.90
64960;BMP180;51487;52.266;10.542;2023-11-22T03:29:55;101815.00;;;0.90
64960;BMP180;51487;52.266;10.542;2023-11-22T03:32:21;101816.00;;;0.90
64960;BMP180;51487;52.266;10.542;2023-11-22T03:34:47;101816.00;;;0.90
64960;BMP180;51487;52.266;10.542;2023-11-22T03:37:12;101823.00;;;0.80
64960;BMP180;51487;52.266;10.542;2023-11-22T03:39:38;101832.00;;;0.70
64960;BMP180;51487;52.266;10.542;2023-11-22T03:42:04;101833.00;;;0.70
64960;BMP180;51487;52.266;10.542;2023-11-22T03:44:30;101834.00;;;0.70
64960;BMP180;51487;52.266;10.542;2023-11-22T03:46:55;101835.00;;;0.70
64960;BMP180;51487;52.266;10.542;2023-11-22T03:49:21;101838.00;;;0.60
64960;BMP180;51487;52.266;10.542;2023-11-22T03:51:47;101842.00;;;0.60
64960;BMP180;51487;52.266;10.542;2023-11-22T03:54:13;101845.00;;;0.60
64960;BMP180;51487;52.266;10.542;2023-11-22T03:56:39;101845.00;;;0.60
64960;BMP180;51487;52.266;10.542;2023-11-22T03:59:05;101850.00;;;0.60
64960;BMP180;51487;52.266;10.542;2023-11-22T04:01:30;101852.00;;;0.60
64960;BMP180;51487;52.266;10.542;2023-11-22T04:03:56;101847.00;;;0.50
64960;BMP180;51487;52.266;10.542;2023-11-22T04:06:22;101849.00;;;0.60
64960;BMP180;51487;52.266;10.542;2023-11-22T04:08:48;101854.00;;;0.60
64960;BMP180;51487;52.266;10.542;2023-11-22T04:11:14;101855.00;;;0.60
64960;BMP180;51487;52.266;10.542;2023-11-22T04:13:40;101853.00;;;0.60
64960;BMP180;51487;52.266;10.542;2023-11-22T04:16:06;101855.00;;;0.60
64960;BMP180;51487;52.266;10.542;2023-11-22T04:18:39;101856.00;;;0.50
64960;BMP180;51487;52.266;10.542;2023-11-22T04:21:06;101864.00;;;0.60
64960;BMP180;51487;52.266;10.542;2023-11-22T04:23:32;101874.00;;;0.50
64960;BMP180;51487;52.266;10.542;2023-11-22T04:25:59;101872.00;;;0.50
64960;BMP180;51487;52.266;10.542;2023-11-22T04:28:26;101876.00;;;0.40
64960;BMP180;51487;52.266;10.542;2023-11-22T04:30:53;101883.00;;;0.40
64960;BMP180;51487;52.266;10.542;2023-11-22T04:33:19;101889.00;;;0.40
64960;BMP180;51487;52.266;10.542;2023-11-22T04:35:45;101879.00;;;0.30
64960;BMP180;51487;52.266;10.542;2023-11-22T04:38:11;101887.00;;;0.30
64960;BMP180;51487;52.266;10.542;2023-11-22T04:40:37;101890.00;;;0.40
64960;BMP180;51487;52.266;10.542;2023-11-22T04:43:02;101885.00;;;0.40
64960;BMP180;51487;52.266;10.542;2023-11-22T04:45:28;101890.00;;;0.30
64960;BMP180;51487;52.266;10.542;2023-11-22T04:47:53;101884.00;;;0.30
64960;BMP180;51487;52.266;10.542;2023-11-22T04:50:22;101899.00;;;0.30
64960;BMP180;51487;52.266;10.542;2023-11-22T04:52:49;101909.00;;;0.30
64960;BMP180;51487;52.266;10.542;2023-11-22T04:55:15;101909.00;;;0.30
64960;BMP180;51487;52.266;10.542;2023-11-22T04:57:41;101912.00;;;0.30
64960;BMP180;51487;52.266;10.542;2023-11-22T05:00:07;101909.00;;;0.30
64960;BMP180;51487;52.266;10.542;2023-11-22T05:02:34;101916.00;;;0.30
64960;BMP180;51487;52.266;10.542;2023-11-22T05:05:00;101915.00;;;0.20
64960;BMP180;51487;52.266;10.542;2023-11-22T05:07:25;101903.00;;;0.20
64960;BMP180;51487;52.266;10.542;2023-11-22T05:09:51;101919.00;;;0.20
64960;BMP180;51487;52.266;10.542;2023-11-22T05:12:16;101908.00;;;0.20
64960;BMP180;51487;52.266;10.542;2023-11-22T05:14:42;101901.00;;;0.20
64960;BMP180;51487;52.266;10.542;2023-11-22T05:17:09;101910.00;;;0.20
64960;BMP180;51487;52.266;10.542;2023-11-22T05:19:34;101901.00;;;0.30
64960;BMP180;51487;52.266;10.542;2023-11-22T05:22:00;101906.00;;;0.20
64960;BMP180;51487;52.266;10.542;2023-11-22T05:24:26;101915.00;;;0.10
64960;BMP180;51487;52.266;10.542;2023-11-22T05:26:51;101911.00;;;0.10
64960;BMP180;51487;52.266;10.542;2023-11-22T05:29:17;101928.00;;;0.20
64960;BMP180;51487;52.266;10.542;2023-11-22T05:31:42;101925.00;;;0.20
64960;BMP180;51487;52.266;10.542;2023-11-22T05:34:08;101934.00;;;0.20
64960;BMP180;51487;52.266;10.542;2023-11-22T05:36:34;101938.00;;;0.20
64960;BMP180;51487;52.266;10.542;2023-11-22T05:38:59;101948.00;;;0.10
64960;BMP180;51487;52.266;10.542;2023-11-22T05:41:25;101948.00;;;0.10
64960;BMP180;51487;52.266;10.542;2023-11-22T05:43:52;101949.00;;;0.10
64960;BMP180;51487;52.266;10.542;2023-11-22T05:46:19;101942.00;;;0.10
64960;BMP180;51487;52.266;10.542;2023-11-22T05:48:50;101947.00;;;0.10
64960;BMP180;51487;52.266;10.542;2023-11-22T05:51:17;101933.00;;;0.10
64960;BMP180;51487;52.266;10.542;2023-11-22T05:53:43;101931.00;;;0.10
64960;BMP180;51487;52.266;10.542;2023-11-22T05:56:08;101938.00;;;0.10
64960;BMP180;51487;52.266;10.542;2023-11-22T05:58:35;101938.00;;;0.10
64960;BMP180;51487;52.266;10.542;2023-11-22T06:01:07;101947.00;;;0.00
64960;BMP180;51487;52.266;10.542;2023-11-22T06:03:36;101932.00;;;-0.10
64960;BMP180;51487;52.266;10.542;2023-11-22T06:06:04;101947.00;;;-0.10
64960;BMP180;51487;52.266;10.542;2023-11-22T06:08:30;101949.00;;;-0.10
64960;BMP180;51487;52.266;10.542;2023-11-22T06:10:56;101956.00;;;-0.10
64960;BMP180;51487;52.266;10.542;2023-11-22T06:13:23;101969.00;;;-0.20
64960;BMP180;51487;52.266;10.542;2023-11-22T06:15:49;101970.00;;;-0.10
64960;BMP180;51487;52.266;10.542;2023-11-22T06:18:15;101978.00;;;-0.20
64960;BMP180;51487;52.266;10.542;2023-11-22T06:20:42;101986.00;;;-0.20
64960;BMP180;51487;52.266;10.542;2023-11-22T06:23:08;101992.00;;;-0.10
64960;BMP180;51487;52.266;10.542;2023-11-22T06:25:34;102000.00;;;-0.10
64960;BMP180;51487;52.266;10.542;2023-11-22T06:28:02;102006.00;;;-0.20
64960;BMP180;51487;52.266;10.542;2023-11-22T06:30:28;102015.00;;;-0.20
64960;BMP180;51487;52.266;10.542;2023-11-22T06:32:55;102010.00;;;-0.20
64960;BMP180;51487;52.266;10.542;2023-11-22T06:35:21;102014.00;;;-0.20
64960;BMP180;51487;52.266;10.542;2023-11-22T06:37:47;102021.00;;;-0.20
64960;BMP180;51487;52.266;10.542;2023-11-22T06:40:13;102021.00;;;-0.20
64960;BMP180;51487;52.266;10.542;2023-11-22T06:42:42;102024.00;;;-0.10
64960;BMP180;51487;52.266;10.542;2023-11-22T06:45:08;102022.00;;;-0.20
64960;BMP180;51487;52.266;10.542;2023-11-22T06:47:41;102025.00;;;-0.20
64960;BMP180;51487;52.266;10.542;2023-11-22T06:50:08;102023.00;;;-0.10
64960;BMP180;51487;52.266;10.542;2023-11-22T06:52:35;102017.00;;;0.00
64960;BMP180;51487;52.266;10.542;2023-11-22T06:55:08;102022.00;;;0.10
64960;BMP180;51487;52.266;10.542;2023-11-22T06:57:38;102014.00;;;0.20
64960;BMP180;51487;52.266;10.542;2023-11-22T07:00:04;102004.00;;;0.20
64960;BMP180;51487;52.266;10.542;2023-11-22T07:02:31;102001.00;;;0.20
64960;BMP180;51487;52.266;10.542;2023-11-22T07:04:57;101995.00;;;0.30
64960;BMP180;51487;52.266;10.542;2023-11-22T07:07:26;102008.00;;;0.30
64960;BMP180;51487;52.266;10.542;2023-11-22T07:09:52;102007.00;;;0.40
64960;BMP180;51487;52.266;10.542;2023-11-22T07:12:17;102004.00;;;0.30
64960;BMP180;51487;52.266;10.542;2023-11-22T07:14:44;102004.00;;;0.20
64960;BMP180;51487;52.266;10.542;2023-11-22T07:17:09;102004.00;;;0.20
64960;BMP180;51487;52.266;10.542;2023-11-22T07:19:35;102001.00;;;0.40
64960;BMP180;51487;52.266;10.542;2023-11-22T07:22:05;101992.00;;;0.40
64960;BMP180;51487;52.266;10.542;2023-11-22T07:24:44;101991.00;;;0.40
64960;BMP180;51487;52.266;10.542;2023-11-22T07:27:19;101984.00;;;0.40
64960;BMP180;51487;52.266;10.542;2023-11-22T07:29:45;101980.00;;;0.20
64960;BMP180;51487;52.266;10.542;2023-11-22T07:32:11;101979.00;;;0.30
64960;BMP180;51487;52.266;10.542;2023-11-22T07:34:38;101975.00;;;0.30
64960;BMP180;51487;52.266;10.542;2023-11-22T07:37:06;101976.00;;;0.30
64960;BMP180;51487;52.266;10.542;2023-11-22T07:39:33;101973.00;;;0.30
64960;BMP180;51487;52.266;10.542;2023-11-22T07:42:03;101987.00;;;0.20
64960;BMP180;51487;52.266;10.542;2023-11-22T07:44:33;101976.00;;;0.30
64960;BMP180;51487;52.266;10.542;2023-11-22T07:47:04;101988.00;;;0.40
64960;BMP180;51487;52.266;10.542;2023-11-22T07:49:34;101986.00;;;0.60
64960;BMP180;51487;52.266;10.542;2023-11-22T07:52:04;101973.00;;;0.60
64960;BMP180;51487;52.266;10.542;2023-11-22T07:54:31;101978.00;;;0.50
64960;BMP180;51487;52.266;10.542;2023-11-22T07:56:56;101972.00;;;0.60
64960;BMP180;51487;52.266;10.542;2023-11-22T07:59:23;101976.00;;;0.50
64960;BMP180;51487;52.266;10.542;2023-11-22T08:01:48;101986.00;;;0.60
64960;BMP180;51487;52.266;10.542;2023-11-22T08:04:14;101987.00;;;0.70
64960;BMP180;51487;52.266;10.542;2023-11-22T08:06:42;101989.00;;;0.80
64960;BMP180;51487;52.266;10.542;2023-11-22T08:09:08;101992.00;;;0.70
64960;BMP180;51487;52.266;10.542;2023-11-22T08:11:35;101981.00;;;0.70
64960;BMP180;51487;52.266;10.542;2023-11-22T08:14:02;101974.00;;;0.80
64960;BMP180;51487;52.266;10.542;2023-11-22T08:16:28;101967.00;;;0.90
64960;BMP180;51487;52.266;10.542;2023-11-22T08:18:54;101977.00;;;0.80
64960;BMP180;51487;52.266;10.542;2023-11-22T08:21:19;101984.00;;;0.80
64960;BMP180;51487;52.266;10.542;2023-11-22T08:23:48;101987.00;;;0.80
64960;BMP180;51487;52.266;10.542;2023-11-22T08:26:14;101996.00;;;0.90
64960;BMP180;51487;52.266;10.542;2023-11-22T08:28:40;102005.00;;;0.80
64960;BMP180;51487;52.266;10.542;2023-11-22T08:31:05;102015.00;;;0.90
64960;BMP180;51487;52.266;10.542;2023-11-22T08:33:38;102023.00;;;0.90
64960;BMP180;51487;52.266;10.542;2023-11-22T08:36:07;102039.00;;;0.90
64960;BMP180;51487;52.266;10.542;2023-11-22T08:38:36;102037.00;;;0.90
64960;BMP180;51487;52.266;10.542;2023-11-22T08:41:06;102044.00;;;0.90
64960;BMP180;51487;52.266;10.542;2023-11-22T08:43:33;102056.00;;;1.00
64960;BMP180;51487;52.266;10.542;2023-11-22T08:45:59;102056.00;;;0.80
64960;BMP180;51487;52.266;10.542;2023-11-22T08:48:25;102053.00;;;1.00
64960;BMP180;51487;52.266;10.542;2023-11-22T08:50:51;102058.00;;;0.90
64960;BMP180;51487;52.266;10.542;2023-11-22T08:53:19;102054.00;;;1.00
64960;BMP180;51487;52.266;10.542;2023-11-22T08:55:46;102061.00;;;1.00
64960;BMP180;51487;52.266;10.542;2023-11-22T08:58:12;102061.00;;;1.20
64960;BMP180;51487;52.266;10.542;2023-11-22T09:00:39;102052.00;;;1.20
64960;BMP180;51487;52.266;10.542;2023-11-22T09:03:09;102047.00;;;1.20
64960;BMP180;51487;52.266;10.542;2023-11-22T09:05:39;102042.00;;;1.30
64960;BMP180;51487;52.266;10.542;2023-11-22T09:08:05;102055.00;;;1.30
64960;BMP180;51487;52.266;10.542;2023-11-22T09:10:31;102058.00;;;1.30
64960;BMP180;51487;52.266;10.542;2023-11-22T09:12:57;102051.00;;;1.50
64960;BMP180;51487;52.266;10.542;2023-11-22T09:15:25;102037.00;;;1.40
64960;BMP180;51487;52.266;10.542;2023-11-22T09:17:54;102043.00;;;1.50
64960;BMP180;51487;52.266;10.542;2023-11-22T09:20:20;102040.00;;;1.40
64960;BMP180;51487;52.266;10.542;2023-11-22T09:22:50;102036.00;;;1.50
64960;BMP180;51487;52.266;10.542;2023-11-22T09:25:21;102038.00;;;1.60
64960;BMP180;51487;52.266;10.542;2023-11-22T09:27:49;102031.00;;;1.50
64960;BMP180;51487;52.266;10.542;2023-11-22T09:30:22;102025.00;;;1.60
64960;BMP180;51487;52.266;10.542;2023-11-22T09:33:13;102029.00;;;1.60
64960;BMP180;51487;52.266;10.542;2023-11-22T09:35:40;102033.00;;;1.70
64960;BMP180;51487;52.266;10.542;2023-11-22T09:38:09;102039.00;;;1.80
64960;BMP180;51487;52.266;10.542;2023-11-22T09:40:44;102047.00;;;5.60
64960;BMP180;51487;52.266;10.542;2023-11-22T09:43:12;102056.00;;;7.60
64960;BMP180;51487;52.266;10.542;2023-11-22T09:45:43;102058.00;;;8.40
64960;BMP180;51487;52.266;10.542;2023-11-22T09:48:16;102047.00;;;9.70
64960;BMP180;51487;52.266;10.542;2023-11-22T09:51:03;102042.00;;;8.10
64960;BMP180;51487;52.266;10.542;2023-11-22T09:53:59;102048.00;;;9.10
64960;BMP180;51487;52.266;10.542;2023-11-22T09:56:30;102023.00;;;8.70
64960;BMP180;51487;52.266;10.542;2023-11-22T09:58:58;102010.00;;;6.60
64960;BMP180;51487;52.266;10.542;2023-11-22T10:01:27;102009.00;;;4.80
64960;BMP180;51487;52.266;10.542;2023-11-22T10:03:54;102032.00;;;4.70
64960;BMP180;51487;52.266;10.542;2023-11-22T10:06:20;102027.00;;;3.90
64960;BMP180;51487;52.266;10.542;2023-11-22T10:08:46;102011.00;;;3.40
64960;BMP180;51487;52.266;10.542;2023-11-22T10:11:16;102026.00;;;3.30
64960;BMP180;51487;52.266;10.542;2023-11-22T10:13:49;102030.00;;;3.20
64960;BMP180;51487;52.266;10.542;2023-11-22T10:16:16;102027.00;;;3.00
64960;BMP180;51487;52.266;10.542;2023-11-22T10:18:44;102063.00;;;2.90
64960;BMP180;51487;52.266;10.542;2023-11-22T10:21:24;102064.00;;;2.60
64960;BMP180;51487;52.266;10.542;2023-11-22T10:23:53;102059.00;;;2.60
64960;BMP180;51487;52.266;10.542;2023-11-22T10:26:21;102063.00;;;2.30
64960;BMP180;51487;52.266;10.542;2023-11-22T10:28:51;102052.00;;;2.70
64960;BMP180;51487;52.266;10.542;2023-11-22T10:31:18;102051.00;;;2.70
64960;BMP180;51487;52.266;10.542;2023-11-22T10:33:45;102050.00;;;2.50
64960;BMP180;51487;52.266;10.542;2023-11-22T10:36:13;102058.00;;;2.60
64960;BMP180;51487;52.266;10.542;2023-11-22T10:38:41;102064.00;;;2.70
64960;BMP180;51487;52.266;10.542;2023-11-22T10:41:11;102065.00;;;2.60
64960;BMP180;51487;52.266;10.542;2023-11-22T10:43:39;102066.00;;;2.60
64960;BMP180;51487;52.266;10.542;2023-11-22T10:46:07;102077.00;;;2.50
64960;BMP180;51487;52.266;10.542;2023-11-22T10:48:35;102091.00;;;2.00
64960;BMP180;51487;52.266;10.542;2023-11-22T10:51:03;102094.00;;;2.40
64960;BMP180;51487;52.266;10.542;2023-11-22T10:53:32;102080.00;;;2.50
64960;BMP180;51487;52.266;10.542;2023-11-22T10:56:19;102067.00;;;2.80
64960;BMP180;51487;52.266;10.542;2023-11-22T10:58:56;102067.00;;;2.70
64960;BMP180;51487;52.266;10.542;2023-11-22T11:01:25;102068.00;;;2.60
64960;BMP180;51487;52.266;10.542;2023-11-22T11:04:08;102048.00;;;2.80
64960;BMP180;51487;52.266;10.542;2023-11-22T11:06:37;102064.00;;;3.00
64960;BMP180;51487;52.266;10.542;2023-11-22T11:09:06;102052.00;;;3.00
64960;BMP180;51487;52.266;10.542;2023-11-22T11:11:35;102041.00;;;3.00
64960;BMP180;51487;52.266;10.542;2023-11-22T11:14:02;102053.00;;;2.70
64960;BMP180;51487;52.266;10.542;2023-11-22T11:16:31;102040.00;;;2.80
64960;BMP180;51487;52.266;10.542;2023-11-22T11:19:02;102016.00;;;2.50
64960;BMP180;51487;52.266;10.542;2023-11-22T11:21:30;102011.00;;;2.60
64960;BMP180;51487;52.266;10.542;2023-11-22T11:23:58;102013.00;;;2.60
64960;BMP180;51487;52.266;10.542;2023-11-22T11:26:27;102013.00;;;2.50
64960;BMP180;51487;52.266;10.542;2023-11-22T11:28:54;102004.00;;;2.40
64960;BMP180;51487;52.266;10.542;2023-11-22T11:31:23;101996.00;;;2.50
64960;BMP180;51487;52.266;10.542;2023-11-22T11:36:41;101997.00;;;2.60
64960;BMP180;51487;52.266;10.542;2023-11-22T11:39:07;102007.00;;;2.40
64960;BMP180;51487;52.266;10.542;2023-11-22T11:41:40;102008.00;;;2.70
64960;BMP180;51487;52.266;10.542;2023-11-22T11:44:10;101993.00;;;2.70
64960;BMP180;51487;52.266;10.542;2023-11-22T11:46:38;101988.00;;;2.70
64960;BMP180;51487;52.266;10.542;2023-11-22T11:49:09;101978.00;;;2.90
64960;BMP180;51487;52.266;10.542;2023-11-22T11:51:39;101974.00;;;2.90
64960;BMP180;51487;52.266;10.542;2023-11-22T11:54:05;101962.00;;;2.90
64960;BMP180;51487;52.266;10.542;2023-11-22T11:56:31;101966.00;;;2.80
64960;BMP180;51487;52.266;10.542;2023-11-22T11:58:58;101968.00;;;2.80
64960;BMP180;51487;52.266;10.542;2023-11-22T12:01:27;101950.00;;;2.50
64960;BMP180;51487;52.266;10.542;2023-11-22T12:03:54;101934.00;;;2.70
64960;BMP180;51487;52.266;10.542;2023-11-22T12:06:21;101929.00;;;2.60
64960;BMP180;51487;52.266;10.542;2023-11-22T12:08:47;101926.00;;;2.40
64960;BMP180;51487;52.266;10.542;2023-11-22T12:11:14;101909.00;;;2.40
64960;BMP180;51487;52.266;10.542;2023-11-22T12:13:41;101900.00;;;2.40
64960;BMP180;51487;52.266;10.542;2023-11-22T12:16:13;101896.00;;;2.50
64960;BMP180;51487;52.266;10.542;2023-11-22T12:18:42;101879.00;;;2.60
64960;BMP180;51487;52.266;10.542;2023-11-22T12:21:09;101886.00;;;2.60
64960;BMP180;51487;52.266;10.542;2023-11-22T12:23:40;101870.00;;;2.60
64960;BMP180;51487;52.266;10.542;2023-11-22T12:26:12;101873.00;;;2.50
64960;BMP180;51487;52.266;10.542;2023-11-22T12:28:40;101870.00;;;2.60
64960;BMP180;51487;52.266;10.542;2023-11-22T12:31:10;101875.00;;;2.50
64960;BMP180;51487;52.266;10.542;2023-11-22T12:33:38;101875.00;;;2.50
64960;BMP180;51487;52.266;10.542;2023-11-22T12:36:07;101871.00;;;2.40
64960;BMP180;51487;52.266;10.542;2023-11-22T12:38:41;101857.00;;;2.50
64960;BMP180;51487;52.266;10.542;2023-11-22T12:41:07;101870.00;;;2.60
64960;BMP180;51487;52.266;10.542;2023-11-22T12:43:33;101871.00;;;2.80
64960;BMP180;51487;52.266;10.542;2023-11-22T12:46:00;101856.00;;;2.70
64960;BMP180;51487;52.266;10.542;2023-11-22T12:48:29;101841.00;;;2.60
64960;BMP180;51487;52.266;10.542;2023-11-22T12:50:58;101849.00;;;2.70
64960;BMP180;51487;52.266;10.542;2023-11-22T12:53:25;101881.00;;;2.50
64960;BMP180;51487;52.266;10.542;2023-11-22T12:55:53;101908.00;;;2.70
64960;BMP180;51487;52.266;10.542;2023-11-22T12:58:25;101897.00;;;2.60
64960;BMP180;51487;52.266;10.542;2023-11-22T13:00:54;101895.00;;;2.70
64960;BMP180;51487;52.266;10.542;2023-11-22T13:03:24;101897.00;;;2.70
64960;BMP180;51487;52.266;10.542;2023-11-22T13:05:51;101898.00;;;2.60
64960;BMP180;51487;52.266;10.542;2023-11-22T13:08:20;101898.00;;;2.70
64960;BMP180;51487;52.266;10.542;2023-11-22T13:10:48;101897.00;;;2.60
64960;BMP180;51487;52.266;10.542;2023-11-22T13:13:25;101894.00;;;2.60
64960;BMP180;51487;52.266;10.542;2023-11-22T13:15:53;101881.00;;;2.60
64960;BMP180;51487;52.266;10.542;2023-11-22T13:18:19;101870.00;;;2.50
64960;BMP180;51487;52.266;10.542;2023-11-22T13:20:45;101869.00;;;2.40
64960;BMP180;51487;52.266;10.542;2023-11-22T13:23:11;101850.00;;;2.50
64960;BMP180;51487;52.266;10.542;2023-11-22T13:25:39;101840.00;;;2.50
64960;BMP180;51487;52.266;10.542;2023-11-22T13:28:06;101837.00;;;2.50
64960;BMP180;51487;52.266;10.542;2023-11-22T13:30:32;101822.00;;;2.20
64960;BMP180;51487;52.266;10.542;2023-11-22T13:32:57;101810.00;;;2.20
64960;BMP180;51487;52.266;10.542;2023-11-22T13:35:24;101797.00;;;2.30
64960;BMP180;51487;52.266;10.542;2023-11-22T13:37:52;101786.00;;;2.30
64960;BMP180;51487;52.266;10.542;2023-11-22T13:40:20;101786.00;;;2.40
64960;BMP180;51487;52.266;10.542;2023-11-22T13:42:51;101785.00;;;2.20
64960;BMP180;51487;52.266;10.542;2023-11-22T13:45:20;101787.00;;;2.40
64960;BMP180;51487;52.266;10.542;2023-11-22T13:47:47;101781.00;;;2.50
64960;BMP180;51487;52.266;10.542;2023-11-22T13:50:14;101784.00;;;2.40
64960;BMP180;51487;52.266;10.542;2023-11-22T13:52:53;101779.00;;;2.50
64960;BMP180;51487;52.266;10.542;2023-11-22T13:55:20;101797.00;;;2.50
64960;BMP180;51487;52.266;10.542;2023-11-22T13:57:56;101818.00;;;2.60
64960;BMP180;51487;52.266;10.542;2023-11-22T14:00:24;101823.00;;;2.40